Time;durP1;ratioP1;P1;durP2;ratioP2;P2;SDS_P1;SDS_P2;PMS_P1;PMS_P2;Temp;Humidity;BMP_temperature;BMP_pressure;BME280_temperature;BME280_humidity;BME280_pressure;Samples;Min_cycle;Max_cycle;Signal;HPM_P1;HPM_P2
2024/01/06 00:00:32;;;;;;;717.70;664.40;;;1.50;99.90;;;;;;5044171;28;20052;-79
2024/01/06 00:02:58;;;;;;;695.08;644.15;;;1.80;99.90;;;;;;5047649;28;20052;-80
2024/01/06 00:05:23;;;;;;;652.22;604.25;;;1.70;99.90;;;;;;5045283;28;20501;-80
2024/01/06 00:07:49;;;;;;;701.80;650.58;;;2.40;99.90;;;;;;5045463;28;20053;-80
2024/01/06 00:10:15;;;;;;;660.13;611.92;;;2.20;99.90;;;;;;5045910;28;20083;-80
2024/01/06 00:12:40;;;;;;;655.00;607.03;;;1.50;99.90;;;;;;5045112;28;20227;-80
2024/01/06 00:15:07;;;;;;;677.95;628.50;;;1.50;99.90;;;;;;5046772;28;20440;-80
2024/01/06 00:17:32;;;;;;;641.58;595.95;;;1.50;99.90;;;;;;5045041;28;20045;-79
2024/01/06 00:20:00;;;;;;;660.65;612.88;;;1.80;99.90;;;;;;5046026;28;20056;-80
2024/01/06 00:22:26;;;;;;;671.38;622.50;;;2.10;99.90;;;;;;5045793;28;20068;-79
2024/01/06 00:24:51;;;;;;;669.33;620.85;;;1.40;99.90;;;;;;5047339;28;20148;-79
2024/01/06 00:27:17;;;;;;;696.15;645.03;;;1.40;99.90;;;;;;5046091;28;20462;-80
2024/01/06 00:29:43;;;;;;;695.70;644.67;;;1.40;99.90;;;;;;5042074;28;20408;-80
2024/01/06 00:32:09;;;;;;;685.88;635.53;;;1.80;99.90;;;;;;5027954;28;20042;-79
2024/01/06 00:34:34;;;;;;;662.85;614.45;;;1.70;99.90;;;;;;5045001;28;20051;-80
2024/01/06 00:37:00;;;;;;;695.25;644.25;;;1.40;99.90;;;;;;5046011;28;20045;-80
2024/01/06 00:39:26;;;;;;;682.88;632.88;;;1.90;99.90;;;;;;5045310;28;20472;-80
2024/01/06 00:41:51;;;;;;;702.33;651.10;;;1.60;99.90;;;;;;5060978;28;20071;-80
2024/01/06 00:44:17;;;;;;;724.78;670.65;;;1.40;99.90;;;;;;5045617;28;20077;-79
2024/01/06 00:46:43;;;;;;;681.25;631.05;;;1.70;99.90;;;;;;5044878;28;20055;-80
2024/01/06 00:49:08;;;;;;;694.90;643.92;;;1.90;99.90;;;;;;5026331;28;20037;-80
2024/01/06 00:51:34;;;;;;;689.88;638.28;;;1.60;99.90;;;;;;5038969;28;20541;-80
2024/01/06 00:54:00;;;;;;;673.65;623.95;;;1.30;99.90;;;;;;5047073;28;20076;-80
2024/01/06 00:56:27;;;;;;;764.55;703.13;;;1.90;99.90;;;;;;5044008;28;20591;-79
2024/01/06 00:58:53;;;;;;;660.33;611.67;;;2.30;99.90;;;;;;5046115;28;20107;-79
2024/01/06 01:01:18;;;;;;;647.50;600.13;;;1.40;99.90;;;;;;5031243;28;20481;-80
2024/01/06 01:03:44;;;;;;;713.45;661.05;;;1.20;99.90;;;;;;5044773;28;20064;-79
2024/01/06 01:06:10;;;;;;;680.92;630.42;;;1.40;99.90;;;;;;5045322;28;20052;-80
2024/01/06 01:08:35;;;;;;;706.22;654.47;;;1.40;99.90;;;;;;5044704;28;20500;-80
2024/01/06 01:11:01;;;;;;;723.67;669.67;;;1.50;99.90;;;;;;5046684;28;20124;-80
2024/01/06 01:13:27;;;;;;;658.50;609.83;;;1.20;99.90;;;;;;5044598;28;20504;-80
2024/01/06 01:15:52;;;;;;;694.70;642.85;;;2.30;99.90;;;;;;5040452;28;20179;-80
2024/01/06 01:18:18;;;;;;;647.78;600.65;;;2.30;99.90;;;;;;5038492;28;20087;-80
2024/01/06 01:20:44;;;;;;;617.95;572.60;;;1.90;99.90;;;;;;5049296;28;20045;-80
2024/01/06 01:23:10;;;;;;;677.22;627.55;;;1.20;99.90;;;;;;5048629;28;20049;-80
2024/01/06 01:25:35;;;;;;;769.58;708.00;;;1.90;99.90;;;;;;5049197;28;20049;-80
2024/01/06 01:28:01;;;;;;;627.40;581.70;;;1.30;99.90;;;;;;5049178;28;20048;-79
2024/01/06 01:30:27;;;;;;;667.10;618.35;;;1.30;99.90;;;;;;5049300;28;20045;-80
2024/01/06 01:32:53;;;;;;;673.85;624.72;;;1.90;99.90;;;;;;5049363;28;20119;-79
2024/01/06 01:35:19;;;;;;;623.65;579.03;;;1.20;99.90;;;;;;5048731;28;20178;-79
2024/01/06 01:37:44;;;;;;;624.15;579.20;;;1.80;99.90;;;;;;5048346;28;20048;-80
2024/01/06 01:40:10;;;;;;;612.00;568.28;;;1.70;99.90;;;;;;5048344;28;20049;-80
2024/01/06 01:42:37;;;;;;;587.00;544.97;;;1.20;99.90;;;;;;5048007;28;20179;-79
2024/01/06 01:45:04;;;;;;;616.70;572.35;;;2.20;99.90;;;;;;5048034;28;20048;-80
2024/01/06 01:47:30;;;;;;;580.95;540.08;;;1.20;99.90;;;;;;5043096;28;20041;-79
2024/01/06 01:49:56;;;;;;;592.33;549.92;;;1.60;99.90;;;;;;5041695;28;20041;-79
2024/01/06 01:52:22;;;;;;;609.83;566.00;;;1.20;99.90;;;;;;5043364;28;20111;-80
2024/01/06 01:54:48;;;;;;;637.17;591.33;;;1.10;99.90;;;;;;5042880;28;20127;-79
2024/01/06 01:57:16;;;;;;;625.67;580.53;;;1.30;99.90;;;;;;5048323;28;20047;-80
2024/01/06 01:59:42;;;;;;;597.15;554.53;;;1.60;99.90;;;;;;5048827;28;20041;-79
2024/01/06 02:02:08;;;;;;;604.67;561.40;;;1.50;99.90;;;;;;5081590;28;20052;-79
2024/01/06 02:04:35;;;;;;;618.28;573.50;;;1.50;99.90;;;;;;5049579;28;20037;-79
2024/01/06 02:07:00;;;;;;;591.58;549.38;;;1.10;99.90;;;;;;5046292;28;20052;-79
2024/01/06 02:09:29;;;;;;;622.47;577.55;;;1.20;99.90;;;;;;5047717;28;20045;-80
2024/01/06 02:11:57;;;;;;;567.53;527.45;;;2.10;99.90;;;;;;5067681;28;20778;-79
2024/01/06 02:14:23;;;;;;;593.70;551.38;;;1.20;99.90;;;;;;5047305;28;20056;-79
2024/01/06 02:16:49;;;;;;;629.53;584.20;;;1.10;99.90;;;;;;5047312;28;20123;-79
2024/01/06 02:19:17;;;;;;;609.67;566.17;;;1.90;99.90;;;;;;5047729;28;20124;-79
2024/01/06 02:21:44;;;;;;;598.38;555.40;;;1.60;99.90;;;;;;5046071;28;20056;-80
2024/01/06 02:24:10;;;;;;;602.22;559.05;;;1.10;99.90;;;;;;5047493;28;20055;-79
2024/01/06 02:26:36;;;;;;;585.83;544.05;;;1.40;99.90;;;;;;5030516;28;20056;-79
2024/01/06 02:29:01;;;;;;;600.03;557.33;;;1.10;99.90;;;;;;5046929;28;20051;-79
2024/01/06 02:31:28;;;;;;;581.25;539.78;;;1.10;99.90;;;;;;5047285;28;20523;-79
2024/01/06 02:33:53;;;;;;;637.38;591.30;;;1.10;99.90;;;;;;5047156;28;20176;-79
2024/01/06 02:36:19;;;;;;;605.15;561.83;;;1.10;99.90;;;;;;5046614;28;20140;-79
2024/01/06 02:38:45;;;;;;;562.63;522.55;;;1.90;99.90;;;;;;5047194;28;20051;-79
2024/01/06 02:41:10;;;;;;;583.42;541.97;;;1.40;99.90;;;;;;5048166;28;20052;-79
2024/01/06 02:43:36;;;;;;;586.33;544.45;;;2.10;99.90;;;;;;5036126;28;20569;-80
2024/01/06 02:46:02;;;;;;;552.42;514.30;;;2.10;99.90;;;;;;5047368;28;20044;-80
2024/01/06 02:48:30;;;;;;;612.45;567.05;;;1.00;99.90;;;;;;5048935;28;20124;-80
2024/01/06 02:50:56;;;;;;;571.10;531.17;;;1.00;99.90;;;;;;5049075;28;20044;-80
2024/01/06 02:53:22;;;;;;;593.15;550.67;;;2.10;99.90;;;;;;5047241;28;20048;-80
2024/01/06 02:55:47;;;;;;;611.15;566.40;;;1.40;99.90;;;;;;5048286;28;20040;-80
2024/01/06 02:58:13;;;;;;;600.53;557.38;;;1.10;99.90;;;;;;5046615;28;20400;-80
2024/01/06 03:00:39;;;;;;;562.53;522.97;;;2.20;99.90;;;;;;5036971;28;20124;-79
2024/01/06 03:03:04;;;;;;;629.53;584.20;;;0.90;99.90;;;;;;5044874;28;20420;-80
2024/01/06 03:05:31;;;;;;;573.38;533.30;;;1.80;99.90;;;;;;5047903;28;20048;-80
2024/01/06 03:07:57;;;;;;;604.60;561.60;;;1.30;99.90;;;;;;5046355;28;20115;-80
2024/01/06 03:10:22;;;;;;;614.80;571.15;;;1.40;99.90;;;;;;5047825;28;20080;-80
2024/01/06 03:12:48;;;;;;;645.15;598.08;;;0.90;99.90;;;;;;5046391;28;20107;-79
2024/01/06 03:15:14;;;;;;;632.65;587.00;;;0.90;99.90;;;;;;5046859;28;20049;-80
2024/01/06 03:17:40;;;;;;;647.20;600.63;;;0.90;99.90;;;;;;5046804;28;20067;-80
2024/01/06 03:20:07;;;;;;;601.30;558.50;;;1.90;99.90;;;;;;5047142;28;20045;-80
2024/01/06 03:22:33;;;;;;;617.42;573.03;;;0.90;99.90;;;;;;5061431;28;20045;-80
2024/01/06 03:24:58;;;;;;;628.17;582.88;;;0.90;99.90;;;;;;5046166;28;20060;-79
2024/01/06 03:27:24;;;;;;;620.38;575.80;;;2.00;99.90;;;;;;5046233;28;20130;-79
2024/01/06 03:29:50;;;;;;;603.50;560.20;;;1.80;99.90;;;;;;5040813;28;20103;-80
2024/01/06 03:32:16;;;;;;;592.53;550.10;;;0.90;99.90;;;;;;5028718;28;20150;-80
2024/01/06 03:34:41;;;;;;;612.63;568.53;;;1.00;99.90;;;;;;5045865;28;20079;-80
2024/01/06 03:37:07;;;;;;;587.65;545.35;;;1.50;99.90;;;;;;5044912;28;20072;-80
2024/01/06 03:39:33;;;;;;;592.58;550.10;;;2.10;99.90;;;;;;5046298;28;20053;-80
2024/01/06 03:42:00;;;;;;;626.22;580.65;;;1.40;99.90;;;;;;5072590;28;20044;-79
2024/01/06 03:44:30;;;;;;;631.65;585.95;;;1.50;99.90;;;;;;5040403;28;20086;-80
2024/01/06 03:46:58;;;;;;;611.25;567.17;;;1.50;99.90;;;;;;5046481;28;20049;-79
2024/01/06 03:49:24;;;;;;;583.67;541.75;;;1.00;99.90;;;;;;5035357;28;20051;-79
2024/01/06 03:51:49;;;;;;;565.35;525.47;;;1.90;99.90;;;;;;5043876;28;20033;-79
2024/01/06 03:54:15;;;;;;;611.10;566.88;;;1.20;99.90;;;;;;5046295;28;20102;-80
2024/01/06 03:56:41;;;;;;;587.78;545.92;;;1.70;99.90;;;;;;5045888;28;20045;-80
2024/01/06 03:59:07;;;;;;;586.38;544.13;;;1.00;99.90;;;;;;5045306;28;20041;-80
2024/01/06 04:01:35;;;;;;;587.75;545.75;;;2.00;99.90;;;;;;5047238;28;20132;-80
2024/01/06 04:04:03;;;;;;;569.50;528.95;;;1.50;99.90;;;;;;5045939;28;20056;-80
2024/01/06 04:06:31;;;;;;;585.95;544.25;;;1.00;99.90;;;;;;5033449;28;20049;-79
2024/01/06 04:08:57;;;;;;;598.38;555.13;;;1.40;99.90;;;;;;5036712;28;20071;-79
2024/01/06 04:11:23;;;;;;;613.40;569.97;;;0.90;99.90;;;;;;5045538;28;20055;-79
2024/01/06 04:13:49;;;;;;;606.95;562.60;;;0.90;99.90;;;;;;5045500;28;20372;-79
2024/01/06 04:16:15;;;;;;;626.65;581.20;;;1.10;99.90;;;;;;5046630;28;20052;-80
2024/01/06 04:18:40;;;;;;;573.10;532.90;;;1.60;99.90;;;;;;5047070;28;20519;-79
2024/01/06 04:21:06;;;;;;;618.03;572.53;;;1.40;99.90;;;;;;5044729;28;20098;-80
2024/01/06 04:23:32;;;;;;;630.40;584.83;;;1.90;99.90;;;;;;5044715;28;20045;-80
2024/01/06 04:25:57;;;;;;;584.47;542.40;;;1.30;99.90;;;;;;5045842;28;21353;-80
2024/01/06 04:28:23;;;;;;;616.08;571.67;;;1.50;99.90;;;;;;5044325;28;20056;-79
2024/01/06 04:30:49;;;;;;;622.33;577.15;;;0.90;99.90;;;;;;5045333;28;20102;-79
2024/01/06 04:33:15;;;;;;;612.60;567.92;;;1.30;99.90;;;;;;5027784;28;20130;-80
2024/01/06 04:35:40;;;;;;;640.90;593.97;;;1.90;99.90;;;;;;5045436;28;20088;-80
2024/01/06 04:38:06;;;;;;;619.40;574.72;;;1.70;99.90;;;;;;5045116;28;20049;-80
2024/01/06 04:40:32;;;;;;;616.28;572.10;;;1.50;99.90;;;;;;5045529;28;20033;-80
2024/01/06 04:42:57;;;;;;;639.72;593.00;;;1.60;99.90;;;;;;5045777;28;20511;-80
2024/01/06 04:45:24;;;;;;;627.80;582.13;;;1.30;99.90;;;;;;5046562;28;20124;-80
2024/01/06 04:47:50;;;;;;;587.28;544.65;;;1.00;99.90;;;;;;5034976;28;20561;-80
2024/01/06 04:50:17;;;;;;;564.42;525.10;;;1.40;99.90;;;;;;5037217;28;20068;-80
2024/01/06 04:52:43;;;;;;;626.70;581.05;;;0.90;99.90;;;;;;5045585;28;20496;-80
2024/01/06 04:55:09;;;;;;;607.15;563.53;;;1.70;99.90;;;;;;5035200;28;20056;-80
2024/01/06 04:57:36;;;;;;;642.03;595.65;;;1.10;99.90;;;;;;5048902;28;20405;-80
2024/01/06 05:00:03;;;;;;;633.42;587.42;;;1.80;99.90;;;;;;5049231;28;20048;-80
2024/01/06 05:02:29;;;;;;;616.08;571.35;;;0.90;99.90;;;;;;5034583;28;20048;-80
2024/01/06 05:04:55;;;;;;;575.90;534.92;;;0.90;99.90;;;;;;5051242;28;20107;-80
2024/01/06 05:07:20;;;;;;;602.08;558.70;;;1.30;99.90;;;;;;5081696;28;20075;-80
2024/01/06 05:09:46;;;;;;;600.03;556.95;;;2.20;99.90;;;;;;5049263;28;20052;-80
2024/01/06 05:12:12;;;;;;;563.90;524.30;;;1.00;99.90;;;;;;5048943;28;20120;-80
2024/01/06 05:14:37;;;;;;;586.58;544.78;;;0.90;99.90;;;;;;5048853;28;20045;-80
2024/01/06 05:17:03;;;;;;;589.53;547.70;;;1.60;99.90;;;;;;5049230;28;20049;-80
2024/01/06 05:19:29;;;;;;;601.20;558.10;;;1.60;99.90;;;;;;5050389;28;20489;-80
2024/01/06 05:21:55;;;;;;;632.50;586.45;;;1.50;99.90;;;;;;5047581;28;20472;-80
2024/01/06 05:24:22;;;;;;;605.63;561.45;;;0.90;99.90;;;;;;5048475;28;20045;-80
2024/01/06 05:26:48;;;;;;;630.95;585.33;;;0.90;99.90;;;;;;5049556;28;20055;-80
2024/01/06 05:29:14;;;;;;;555.80;517.08;;;0.90;99.90;;;;;;5048482;28;20049;-80
2024/01/06 05:31:39;;;;;;;567.25;527.38;;;1.00;99.90;;;;;;5047753;28;20055;-80
2024/01/06 05:34:05;;;;;;;545.38;507.30;;;1.10;99.90;;;;;;5048733;28;20045;-80
2024/01/06 05:36:31;;;;;;;578.40;537.60;;;1.40;99.90;;;;;;5044605;28;20586;-79
2024/01/06 05:38:56;;;;;;;600.72;557.65;;;1.40;99.90;;;;;;5029813;28;20115;-80
2024/01/06 05:41:22;;;;;;;573.42;533.42;;;1.90;99.90;;;;;;5048255;28;20045;-80
2024/01/06 05:43:48;;;;;;;645.70;596.10;;;1.10;99.90;;;;;;5047842;28;20067;-79
2024/01/06 05:46:22;;;;;;;603.42;559.67;;;1.60;99.90;;;;;;5049398;28;20072;-80
2024/01/06 05:48:48;;;;;;;572.50;532.38;;;0.90;99.90;;;;;;5035335;28;20037;-79
2024/01/06 05:51:14;;;;;;;571.08;531.10;;;0.90;99.90;;;;;;5047070;28;20045;-80
2024/01/06 05:53:41;;;;;;;646.70;599.78;;;1.50;99.90;;;;;;5047530;28;20045;-79
2024/01/06 05:56:08;;;;;;;577.40;536.28;;;1.50;99.90;;;;;;5036303;28;20479;-80
2024/01/06 05:58:35;;;;;;;578.60;538.15;;;2.10;99.90;;;;;;5034170;28;20519;-80
2024/01/06 06:01:00;;;;;;;567.08;527.55;;;1.30;99.90;;;;;;5035017;28;20480;-80
2024/01/06 06:03:26;;;;;;;577.25;535.67;;;1.50;99.90;;;;;;5040560;28;20056;-80
2024/01/06 06:05:52;;;;;;;555.10;516.63;;;1.40;99.90;;;;;;5080443;28;20171;-80
2024/01/06 06:08:18;;;;;;;582.88;541.90;;;1.60;99.90;;;;;;5048543;28;20049;-80
2024/01/06 06:11:04;;;;;;;590.92;549.05;;;1.00;99.90;;;;;;5048009;28;20076;-80
2024/01/06 06:13:31;;;;;;;567.90;527.85;;;1.00;99.90;;;;;;5048109;28;20382;-80
2024/01/06 06:15:57;;;;;;;583.67;541.90;;;1.90;99.90;;;;;;5047916;28;20174;-80
2024/01/06 06:18:23;;;;;;;569.08;529.33;;;1.40;99.90;;;;;;5047604;28;20064;-80
2024/01/06 06:20:49;;;;;;;543.55;505.92;;;1.30;99.90;;;;;;5030383;28;20052;-80
2024/01/06 06:23:14;;;;;;;595.25;552.88;;;1.50;99.90;;;;;;5047889;28;20044;-80
2024/01/06 06:25:40;;;;;;;559.50;520.22;;;1.40;99.90;;;;;;5047669;28;20048;-80
2024/01/06 06:28:06;;;;;;;599.05;556.88;;;1.00;99.90;;;;;;5046516;28;20045;-80
2024/01/06 06:30:32;;;;;;;525.30;489.33;;;1.60;99.90;;;;;;5047293;28;20049;-80
2024/01/06 06:32:58;;;;;;;558.78;519.55;;;1.40;99.90;;;;;;5063501;28;20045;-80
2024/01/06 06:35:24;;;;;;;563.53;524.15;;;1.60;99.90;;;;;;5046382;28;20110;-80
2024/01/06 06:37:50;;;;;;;552.63;514.15;;;1.70;99.90;;;;;;5036458;28;20510;-80
2024/01/06 06:40:16;;;;;;;534.78;497.67;;;1.50;99.90;;;;;;5047837;28;20041;-80
2024/01/06 06:42:42;;;;;;;620.35;575.50;;;1.10;99.90;;;;;;5047767;28;20393;-80
2024/01/06 06:45:08;;;;;;;520.00;485.48;;;1.20;99.90;;;;;;5047878;28;20033;-80
2024/01/06 06:47:33;;;;;;;536.90;499.83;;;1.10;99.90;;;;;;5040684;28;20505;-80
2024/01/06 06:50:00;;;;;;;506.83;472.73;;;1.20;99.90;;;;;;5039231;28;20076;-80
2024/01/06 06:52:25;;;;;;;534.95;497.85;;;1.20;99.90;;;;;;5044844;28;20087;-80
2024/01/06 06:54:52;;;;;;;536.63;499.60;;;1.10;99.90;;;;;;5070113;28;20068;-80
2024/01/06 06:57:19;;;;;;;542.15;504.50;;;1.10;99.90;;;;;;5046681;28;20063;-80
2024/01/06 06:59:44;;;;;;;573.10;533.28;;;1.50;99.90;;;;;;5048949;28;20051;-80
2024/01/06 07:02:10;;;;;;;524.10;488.50;;;1.50;99.90;;;;;;5046328;28;20057;-80
2024/01/06 07:04:36;;;;;;;552.45;514.20;;;1.20;99.90;;;;;;5047197;28;20059;-80
2024/01/06 07:07:02;;;;;;;570.55;530.03;;;2.10;99.90;;;;;;5046236;28;20049;-80
2024/01/06 07:09:27;;;;;;;506.00;471.55;;;1.10;99.90;;;;;;5032760;28;20086;-80
2024/01/06 07:11:53;;;;;;;501.67;467.38;;;1.30;99.90;;;;;;5038918;28;20416;-80
2024/01/06 07:14:19;;;;;;;560.65;521.08;;;1.70;99.90;;;;;;5043074;28;20041;-80
2024/01/06 07:16:44;;;;;;;511.38;477.02;;;1.90;99.90;;;;;;5034203;28;20362;-80
2024/01/06 07:19:10;;;;;;;527.42;491.30;;;1.90;99.90;;;;;;5035140;28;20060;-80
2024/01/06 07:21:37;;;;;;;558.20;519.03;;;1.40;99.90;;;;;;5045515;28;20183;-80
2024/01/06 07:24:03;;;;;;;599.63;556.08;;;2.10;99.90;;;;;;5046550;28;20515;-80
2024/01/06 07:26:28;;;;;;;548.53;510.35;;;1.10;99.90;;;;;;5044473;28;20057;-81
2024/01/06 07:28:54;;;;;;;544.50;506.98;;;1.70;99.90;;;;;;5031798;28;20504;-81
2024/01/06 07:31:20;;;;;;;530.15;493.58;;;1.10;99.90;;;;;;5055851;28;20048;-81
2024/01/06 07:33:47;;;;;;;575.35;534.47;;;1.80;99.90;;;;;;5053878;28;20044;-82
2024/01/06 07:36:13;;;;;;;515.85;480.02;;;1.10;99.90;;;;;;5050931;28;20071;-81
2024/01/06 07:38:39;;;;;;;562.03;522.42;;;1.10;99.90;;;;;;5054805;28;20033;-81
2024/01/06 07:41:06;;;;;;;540.65;503.17;;;1.20;99.90;;;;;;5056541;28;20431;-81
2024/01/06 07:43:31;;;;;;;580.65;539.28;;;2.20;99.90;;;;;;5052029;28;20556;-82
2024/01/06 07:45:57;;;;;;;552.17;513.42;;;1.10;99.90;;;;;;5049412;28;20136;-81
2024/01/06 07:48:23;;;;;;;550.78;512.22;;;1.30;99.90;;;;;;5032771;28;20386;-82
2024/01/06 07:50:50;;;;;;;604.85;561.00;;;1.60;99.90;;;;;;5030752;28;20049;-82
2024/01/06 07:53:15;;;;;;;569.95;528.88;;;1.30;99.90;;;;;;5037019;28;20045;-82
2024/01/06 07:55:41;;;;;;;598.05;554.63;;;1.60;99.90;;;;;;5045738;28;20052;-82
2024/01/06 07:58:07;;;;;;;594.85;551.88;;;2.10;99.90;;;;;;5046241;28;20508;-82
2024/01/06 08:00:33;;;;;;;610.47;566.08;;;2.20;99.90;;;;;;5061805;28;20507;-81
2024/01/06 08:02:58;;;;;;;615.65;570.70;;;1.20;99.90;;;;;;5079696;28;20064;-81
2024/01/06 08:05:24;;;;;;;573.17;532.05;;;1.20;99.90;;;;;;5028168;28;20461;-82
2024/01/06 08:07:51;;;;;;;611.58;567.35;;;1.20;99.90;;;;;;5044941;28;20232;-82
2024/01/06 08:10:17;;;;;;;544.13;505.88;;;1.20;99.90;;;;;;5047119;28;20095;-82
2024/01/06 08:12:43;;;;;;;544.05;505.95;;;1.20;99.90;;;;;;5044838;28;20427;-82
2024/01/06 08:15:09;;;;;;;568.63;527.42;;;1.30;99.90;;;;;;5038822;28;20046;-82
2024/01/06 08:17:35;;;;;;;571.70;530.78;;;1.80;99.90;;;;;;5046779;28;20049;-83
2024/01/06 08:20:03;;;;;;;578.92;537.65;;;1.20;99.90;;;;;;5045730;28;20127;-82
2024/01/06 08:22:29;;;;;;;526.67;490.38;;;1.20;99.90;;;;;;5044354;28;20049;-81
2024/01/06 08:24:54;;;;;;;554.17;514.83;;;1.20;99.90;;;;;;5046322;28;20130;-82
2024/01/06 08:27:21;;;;;;;569.25;529.50;;;2.10;99.90;;;;;;5044279;28;20053;-83
2024/01/06 08:29:47;;;;;;;567.47;527.03;;;1.20;99.90;;;;;;5045779;28;20051;-82
2024/01/06 08:32:14;;;;;;;557.30;518.53;;;1.30;99.90;;;;;;5046910;28;20415;-82
2024/01/06 08:34:40;;;;;;;525.13;488.73;;;1.70;99.90;;;;;;5044186;28;20370;-82
2024/01/06 08:37:06;;;;;;;556.50;517.33;;;1.40;99.90;;;;;;5045231;28;20114;-82
2024/01/06 08:39:32;;;;;;;514.85;479.50;;;1.60;99.90;;;;;;5032766;28;20478;-82
2024/01/06 08:41:58;;;;;;;515.03;479.70;;;1.30;99.90;;;;;;5042846;28;20111;-82
2024/01/06 08:44:24;;;;;;;531.72;494.42;;;1.30;99.90;;;;;;5047123;28;20041;-82
2024/01/06 08:46:50;;;;;;;472.80;441.30;;;2.10;99.90;;;;;;5042718;28;20059;-82
2024/01/06 08:49:16;;;;;;;512.08;477.10;;;1.90;99.90;;;;;;5033599;28;20137;-82
2024/01/06 08:51:42;;;;;;;516.65;481.58;;;1.30;99.90;;;;;;5044064;28;20080;-82
2024/01/06 08:54:07;;;;;;;505.83;471.15;;;1.30;99.90;;;;;;5044533;28;20142;-82
2024/01/06 08:56:34;;;;;;;516.85;481.42;;;2.20;99.90;;;;;;5044531;28;20052;-82
2024/01/06 08:59:00;;;;;;;484.13;451.42;;;1.30;99.90;;;;;;5045995;28;20044;-82
2024/01/06 09:01:25;;;;;;;486.30;453.30;;;1.90;99.90;;;;;;5045425;28;20106;-82
2024/01/06 09:03:51;;;;;;;522.63;486.92;;;1.40;99.90;;;;;;5044898;28;20116;-81
2024/01/06 09:06:17;;;;;;;502.95;466.23;;;1.30;99.90;;;;;;5046517;28;20045;-81
2024/01/06 09:08:42;;;;;;;462.55;431.90;;;1.30;99.90;;;;;;5044028;28;20513;-82
2024/01/06 09:11:08;;;;;;;520.55;485.00;;;1.70;99.90;;;;;;5045116;28;20053;-81
2024/01/06 09:13:34;;;;;;;513.80;478.42;;;2.40;99.90;;;;;;5046472;28;20550;-81
2024/01/06 09:16:00;;;;;;;491.45;458.13;;;2.00;99.90;;;;;;5045709;28;20386;-81
2024/01/06 09:18:27;;;;;;;466.33;435.35;;;1.40;99.90;;;;;;5045534;28;20453;-81
2024/01/06 09:23:33;;;;;;;509.65;474.48;;;1.50;99.90;;;;;;5019132;28;20776;-79
2024/01/06 09:25:59;;;;;;;476.60;444.58;;;1.80;99.90;;;;;;5019273;28;20050;-79
2024/01/06 09:28:25;;;;;;;480.58;448.23;;;2.10;99.90;;;;;;4997598;28;20042;-81
2024/01/06 09:30:52;;;;;;;433.08;404.55;;;1.50;99.90;;;;;;4991861;28;20071;-81
2024/01/06 09:33:18;;;;;;;443.15;414.00;;;1.60;99.90;;;;;;4999912;28;20046;-81
2024/01/06 09:35:44;;;;;;;429.33;400.88;;;1.60;99.90;;;;;;4999221;28;20111;-81
2024/01/06 09:38:10;;;;;;;451.40;421.83;;;1.50;99.90;;;;;;4998821;28;20081;-81
2024/01/06 09:40:41;;;;;;;459.02;428.85;;;1.50;99.90;;;;;;5000269;28;20134;-79
2024/01/06 09:43:07;;;;;;;418.67;391.58;;;2.20;99.90;;;;;;5000759;28;20050;-79
2024/01/06 09:45:34;;;;;;;446.05;417.33;;;2.30;99.90;;;;;;5010854;28;21675;-79
2024/01/06 09:48:09;;;;;;;443.48;414.80;;;1.50;99.90;;;;;;4992510;28;20046;-80
2024/01/06 09:50:35;;;;;;;386.13;361.48;;;1.50;99.90;;;;;;4998639;28;20115;-80
2024/01/06 09:53:05;;;;;;;385.25;360.65;;;1.50;99.90;;;;;;5000298;28;20109;-80
2024/01/06 09:55:31;;;;;;;424.67;397.50;;;1.50;99.90;;;;;;5001382;28;20077;-80
2024/01/06 09:57:57;;;;;;;423.33;395.63;;;1.90;99.90;;;;;;5019782;28;20056;-81
2024/01/06 10:00:23;;;;;;;430.58;401.60;;;2.50;99.90;;;;;;4992529;28;20133;-81
2024/01/06 10:02:51;;;;;;;402.30;376.10;;;1.50;99.90;;;;;;5016506;28;20060;-81
2024/01/06 10:05:17;;;;;;;421.10;393.63;;;2.60;99.90;;;;;;5014146;28;20042;-81
2024/01/06 10:07:44;;;;;;;446.23;416.67;;;2.00;99.90;;;;;;5017465;28;20069;-83
2024/01/06 10:10:11;;;;;;;419.73;392.15;;;2.00;99.90;;;;;;4988746;28;20456;-80
2024/01/06 10:12:39;;;;;;;430.30;401.85;;;2.60;99.90;;;;;;5041590;27;20109;-80
2024/01/06 10:15:06;;;;;;;407.77;381.40;;;1.60;99.90;;;;;;5017698;28;20061;-81
2024/01/06 10:17:33;;;;;;;420.67;392.98;;;1.60;99.90;;;;;;5017340;28;20844;-81
2024/01/06 10:19:59;;;;;;;422.85;394.88;;;1.50;99.90;;;;;;4998453;28;20137;-81
2024/01/06 10:22:25;;;;;;;415.73;389.13;;;1.80;99.90;;;;;;5010987;28;20061;-81
2024/01/06 10:24:51;;;;;;;403.77;377.80;;;2.00;99.90;;;;;;5000645;28;20046;-81
2024/01/06 10:27:17;;;;;;;390.25;365.58;;;1.50;99.90;;;;;;4993071;28;20050;-80
2024/01/06 10:29:42;;;;;;;373.00;349.40;;;2.20;99.90;;;;;;4977759;28;20058;-81
2024/01/06 10:32:08;;;;;;;399.77;373.92;;;1.50;99.90;;;;;;4997529;28;20039;-81
2024/01/06 10:34:36;;;;;;;387.63;363.17;;;1.50;99.90;;;;;;4982492;28;20051;-81
2024/01/06 10:37:02;;;;;;;379.50;355.70;;;1.50;99.90;;;;;;5000584;28;20386;-81
2024/01/06 10:39:29;;;;;;;360.20;337.88;;;1.50;99.90;;;;;;4986271;28;20461;-82
2024/01/06 10:41:56;;;;;;;339.17;318.38;;;2.00;99.90;;;;;;4997599;28;20050;-81
2024/01/06 10:44:23;;;;;;;310.63;292.00;;;1.40;99.90;;;;;;5001382;28;20539;-81
2024/01/06 10:46:50;;;;;;;317.05;297.83;;;1.40;99.90;;;;;;4999646;28;20046;-80
2024/01/06 10:49:21;;;;;;;333.33;312.75;;;1.70;99.90;;;;;;4988072;28;20059;-81
2024/01/06 10:51:48;;;;;;;322.70;303.27;;;1.90;99.90;;;;;;5019736;28;20050;-80
2024/01/06 10:54:15;;;;;;;322.17;302.85;;;1.40;99.90;;;;;;4993078;28;20470;-82
2024/01/06 10:56:43;;;;;;;306.65;288.15;;;2.50;99.90;;;;;;4993116;28;20062;-81
2024/01/06 10:59:11;;;;;;;349.08;327.70;;;1.40;99.90;;;;;;4993105;28;20042;-82
2024/01/06 11:01:39;;;;;;;383.20;359.25;;;1.40;99.90;;;;;;4993398;28;20049;-82
2024/01/06 11:04:05;;;;;;;364.92;342.52;;;1.80;99.90;;;;;;4976585;28;20157;-83
2024/01/06 11:06:33;;;;;;;322.27;302.45;;;1.40;99.90;;;;;;4976966;28;20038;-83
2024/01/06 11:09:09;;;;;;;381.02;357.50;;;1.90;99.90;;;;;;4991906;28;20107;-82
2024/01/06 11:11:37;;;;;;;367.75;345.00;;;1.60;99.90;;;;;;4995597;28;20143;-82
2024/01/06 11:14:21;;;;;;;416.50;390.20;;;2.30;99.90;;;;;;4983552;28;20383;-83
2024/01/06 11:16:47;;;;;;;434.50;406.77;;;1.60;99.90;;;;;;4986563;28;20130;-83
2024/01/06 11:19:34;;;;;;;437.98;409.52;;;1.80;99.90;;;;;;4992141;28;20630;-82
2024/01/06 11:22:23;;;;;;;413.05;386.83;;;2.00;99.90;;;;;;4990293;28;20054;-83
2024/01/06 11:24:51;;;;;;;395.70;370.63;;;1.50;99.90;;;;;;5002574;28;20046;-83
2024/01/06 11:27:20;;;;;;;414.83;388.58;;;1.60;99.90;;;;;;4999039;28;20046;-83
2024/01/06 11:29:46;;;;;;;374.67;351.30;;;1.60;99.90;;;;;;4986716;28;20064;-84
2024/01/06 11:32:35;;;;;;;297.95;280.25;;;1.70;99.90;;;;;;5002311;28;20058;-85
2024/01/06 11:35:09;;;;;;;258.33;242.90;;;2.30;99.90;;;;;;4988224;28;20061;-83
2024/01/06 11:37:38;;;;;;;230.55;216.80;;;1.70;99.90;;;;;;4973160;28;20053;-81
2024/01/06 11:40:09;;;;;;;242.73;228.27;;;2.30;99.90;;;;;;5002100;28;20114;-81
2024/01/06 11:42:35;;;;;;;266.10;250.20;;;1.80;99.90;;;;;;5002770;28;20058;-81
2024/01/06 11:45:03;;;;;;;210.43;197.93;;;1.80;99.90;;;;;;4967531;28;20177;-82
2024/01/06 11:47:30;;;;;;;236.23;222.15;;;1.80;99.90;;;;;;4985496;28;20054;-82
2024/01/06 11:49:58;;;;;;;270.55;254.50;;;2.60;99.90;;;;;;4982382;28;20098;-81
2024/01/06 11:52:25;;;;;;;206.88;194.40;;;1.90;99.90;;;;;;4976243;28;20061;-82
2024/01/06 11:54:54;;;;;;;212.20;199.35;;;1.90;99.90;;;;;;4977898;28;20058;-81
2024/01/06 11:57:20;;;;;;;221.93;208.88;;;1.90;99.90;;;;;;4981409;28;20053;-81
2024/01/06 11:59:46;;;;;;;224.27;210.93;;;1.90;99.90;;;;;;4980063;28;20050;-81
2024/01/06 12:02:13;;;;;;;207.02;194.73;;;1.90;99.90;;;;;;4993687;28;20045;-81
2024/01/06 12:04:40;;;;;;;211.98;199.27;;;2.00;99.90;;;;;;4960721;28;20101;-81
2024/01/06 12:07:08;;;;;;;226.77;213.43;;;2.00;99.90;;;;;;4992546;28;20096;-81
2024/01/06 12:09:33;;;;;;;163.90;153.80;;;1.90;99.90;;;;;;5035444;28;20046;-81
2024/01/06 12:12:05;;;;;;;197.95;185.95;;;2.00;99.90;;;;;;5002023;28;20094;-81
2024/01/06 12:14:31;;;;;;;172.77;162.40;;;1.90;99.90;;;;;;5035776;28;20393;-81
2024/01/06 12:17:02;;;;;;;227.82;214.35;;;1.90;99.90;;;;;;4969131;28;20050;-81